Time;durP1;ratioP1;P1;durP2;ratioP2;P2;SDS_P1;SDS_P2;PMS_P1;PMS_P2;Temp;Humidity;BMP_temperature;BMP_pressure;BME280_temperature;BME280_humidity;BME280_pressure;Samples;Min_cycle;Max_cycle;Signal;HPM_P1;HPM_P2
2023/01/19 00:00:56;;;;;;;7.85;7.05;;;1.00;1.00;;;;;;5071759;28;20228;-83
2023/01/19 00:03:24;;;;;;;8.50;7.57;;;1.00;1.00;;;;;;5074770;28;20187;-82
2023/01/19 00:05:52;;;;;;;8.35;7.65;;;1.00;1.00;;;;;;5093720;27;20306;-81
2023/01/19 00:08:20;;;;;;;7.72;6.90;;;1.00;1.00;;;;;;5082538;28;20500;-82
2023/01/19 00:10:50;;;;;;;7.95;7.13;;;1.00;1.00;;;;;;5084886;28;20212;-83
2023/01/19 00:13:19;;;;;;;10.13;7.60;;;1.00;1.00;;;;;;5079547;28;20232;-82
2023/01/19 00:15:48;;;;;;;9.70;6.97;;;1.00;1.00;;;;;;5084324;28;20194;-82
2023/01/19 00:18:17;;;;;;;8.35;6.53;;;1.00;1.00;;;;;;5075188;28;20290;-82
2023/01/19 00:20:46;;;;;;;10.65;7.72;;;0.90;1.00;;;;;;5083339;28;20219;-82
2023/01/19 00:23:15;;;;;;;7.85;7.15;;;1.00;1.00;;;;;;5083226;28;20191;-82
2023/01/19 00:25:43;;;;;;;8.48;7.60;;;1.00;1.00;;;;;;5081254;28;20295;-83
2023/01/19 00:28:12;;;;;;;9.07;7.35;;;0.90;1.00;;;;;;5077391;28;20224;-83
2023/01/19 00:30:41;;;;;;;14.63;7.95;;;0.80;1.00;;;;;;5083345;28;20704;-82
2023/01/19 00:33:13;;;;;;;9.45;6.47;;;0.60;1.00;;;;;;5077240;28;20191;-81
2023/01/19 00:35:42;;;;;;;7.72;7.00;;;0.50;1.00;;;;;;5086561;28;20196;-81
2023/01/19 00:38:11;;;;;;;9.05;8.13;;;0.60;1.00;;;;;;5082361;28;20677;-81
2023/01/19 00:40:40;;;;;;;10.35;7.40;;;0.60;1.00;;;;;;5074308;28;20250;-80
2023/01/19 00:43:08;;;;;;;8.88;6.97;;;0.60;1.00;;;;;;5076609;28;20200;-81
2023/01/19 00:45:36;;;;;;;7.80;6.43;;;0.60;1.00;;;;;;5082526;28;20220;-80
2023/01/19 00:48:05;;;;;;;9.40;7.30;;;0.60;1.00;;;;;;5084430;28;20704;-80
2023/01/19 00:50:35;;;;;;;8.00;6.55;;;0.50;1.00;;;;;;5079002;28;20945;-78
2023/01/19 00:53:03;;;;;;;8.10;7.28;;;0.60;1.00;;;;;;5080780;28;20214;-81
2023/01/19 00:55:32;;;;;;;9.00;7.05;;;0.50;1.00;;;;;;5084213;28;20226;-82
2023/01/19 00:58:01;;;;;;;8.60;6.60;;;0.50;1.00;;;;;;5079841;28;20223;-81
2023/01/19 01:00:30;;;;;;;10.73;7.32;;;0.50;1.00;;;;;;5085599;28;20263;-81
2023/01/19 01:02:58;;;;;;;7.38;6.28;;;0.60;1.00;;;;;;5081522;28;20211;-81
2023/01/19 01:05:26;;;;;;;7.95;6.82;;;0.80;1.00;;;;;;5082550;28;20295;-82
2023/01/19 01:07:56;;;;;;;8.70;6.35;;;0.90;1.00;;;;;;5080156;28;20944;-82
2023/01/19 01:10:27;;;;;;;10.25;6.72;;;0.70;1.00;;;;;;5086216;28;20219;-82
2023/01/19 01:12:55;;;;;;;7.97;6.93;;;0.70;1.00;;;;;;5098353;28;20188;-81
2023/01/19 01:15:28;;;;;;;7.63;6.85;;;0.70;1.00;;;;;;5099488;28;20188;-81
2023/01/19 01:17:56;;;;;;;6.55;6.03;;;0.60;1.00;;;;;;5088580;28;20198;-81
2023/01/19 01:20:27;;;;;;;8.07;7.28;;;0.70;1.00;;;;;;5086243;28;20707;-81
2023/01/19 01:22:57;;;;;;;7.75;6.60;;;0.80;1.00;;;;;;5084429;28;20199;-81
2023/01/19 01:25:29;;;;;;;8.32;7.53;;;0.80;1.00;;;;;;5086562;28;20224;-82
2023/01/19 01:27:58;;;;;;;7.18;6.43;;;0.70;1.00;;;;;;5085664;28;20198;-82
2023/01/19 01:30:26;;;;;;;7.72;6.93;;;0.60;1.00;;;;;;5085708;28;20840;-82
2023/01/19 01:32:54;;;;;;;7.25;6.18;;;0.70;1.00;;;;;;5074807;28;20203;-83
2023/01/19 01:35:22;;;;;;;7.20;6.28;;;0.80;1.00;;;;;;5081222;28;20220;-83
2023/01/19 01:37:51;;;;;;;9.73;7.60;;;0.80;1.00;;;;;;5078547;28;20205;-82
2023/01/19 01:40:20;;;;;;;8.23;6.75;;;0.80;1.00;;;;;;5082993;28;20227;-80
2023/01/19 01:42:49;;;;;;;8.32;5.68;;;0.80;1.00;;;;;;5077603;28;20200;-81
2023/01/19 01:45:30;;;;;;;7.18;5.95;;;0.90;1.00;;;;;;5075584;28;20196;-82
2023/01/19 01:48:06;;;;;;;7.60;6.85;;;0.70;99.90;;;;;;5078781;28;20218;-81
2023/01/19 01:50:37;;;;;;;13.23;6.57;;;0.60;1.00;;;;;;5094943;28;20242;-80
2023/01/19 01:53:09;;;;;;;9.43;7.07;;;0.60;1.00;;;;;;5082391;28;20192;-81
2023/01/19 01:55:44;;;;;;;6.10;5.50;;;0.50;1.00;;;;;;5072398;28;20192;-80
2023/01/19 01:58:13;;;;;;;8.52;6.63;;;0.50;1.00;;;;;;5079736;28;20732;-81
2023/01/19 02:03:31;;;;;;;6.82;6.15;;;0.40;1.00;;;;;;5074069;28;20212;-81
2023/01/19 02:06:02;;;;;;;10.68;6.95;;;0.30;1.00;;;;;;5082215;28;20212;-82
2023/01/19 02:14:08;;;;;;;5.90;5.32;;;0.50;1.00;;;;;;5084119;28;20230;-83
2023/01/19 02:16:38;;;;;;;7.05;6.45;;;0.60;1.00;;;;;;5083091;28;20269;-80
2023/01/19 02:19:08;;;;;;;9.35;6.13;;;0.70;1.00;;;;;;5081621;28;20212;-80
2023/01/19 02:21:44;;;;;;;8.32;6.20;;;0.80;1.00;;;;;;5077706;28;20964;-80
2023/01/19 02:24:14;;;;;;;8.38;6.50;;;0.80;1.00;;;;;;5081857;28;20195;-81
2023/01/19 02:26:45;;;;;;;8.60;6.72;;;0.80;1.00;;;;;;5080306;28;20220;-82
2023/01/19 02:29:17;;;;;;;7.35;6.03;;;0.90;1.00;;;;;;5080355;28;20718;-81
2023/01/19 02:31:46;;;;;;;8.55;6.03;;;0.90;1.00;;;;;;5072691;28;20231;-80
2023/01/19 02:34:17;;;;;;;6.10;5.50;;;0.80;1.00;;;;;;5090398;28;20218;-80
2023/01/19 02:36:50;;;;;;;8.30;6.43;;;0.80;1.00;;;;;;5078451;28;20195;-80
2023/01/19 02:39:22;;;;;;;5.88;5.20;;;0.80;1.00;;;;;;5080106;28;20604;-80
2023/01/19 02:41:54;;;;;;;7.65;6.05;;;0.70;1.00;;;;;;5074698;28;20243;-81
2023/01/19 02:44:23;;;;;;;9.07;6.35;;;0.80;1.00;;;;;;5075713;28;20254;-80
2023/01/19 02:46:54;;;;;;;5.55;5.05;;;0.80;1.00;;;;;;5077950;28;20471;-80
2023/01/19 02:49:22;;;;;;;6.50;5.38;;;0.70;1.00;;;;;;5083986;28;20216;-78
2023/01/19 02:51:50;;;;;;;8.60;5.90;;;0.70;1.00;;;;;;5084015;28;20208;-80
2023/01/19 02:54:36;;;;;;;8.20;5.57;;;0.80;1.00;;;;;;5075953;28;20330;-79
2023/01/19 02:57:16;;;;;;;7.82;6.13;;;0.80;1.00;;;;;;5084570;27;20203;-83
2023/01/19 02:59:58;;;;;;;6.82;6.05;;;0.80;1.00;;;;;;5087645;28;20290;-81
2023/01/19 03:02:35;;;;;;;7.47;6.25;;;0.70;1.00;;;;;;5080848;28;20283;-82
2023/01/19 03:05:21;;;;;;;7.68;5.97;;;0.80;1.00;;;;;;5078533;28;20580;-80
2023/01/19 03:07:57;;;;;;;7.28;5.95;;;0.70;1.00;;;;;;5077730;28;20231;-80
2023/01/19 03:10:34;;;;;;;9.10;6.60;;;0.80;1.00;;;;;;5076973;28;20231;-81
2023/01/19 03:13:11;;;;;;;8.70;5.90;;;0.60;99.90;;;;;;5076461;28;20987;-82
2023/01/19 03:15:44;;;;;;;5.88;5.38;;;0.60;1.00;;;;;;5076868;28;20203;-83
2023/01/19 03:18:17;;;;;;;6.88;6.13;;;0.70;1.00;;;;;;5083955;28;20711;-82
2023/01/19 03:20:46;;;;;;;5.28;4.78;;;0.70;1.00;;;;;;5093652;27;20216;-83
2023/01/19 03:23:17;;;;;;;5.78;5.18;;;0.70;1.00;;;;;;5081553;28;20269;-83
2023/01/19 03:25:49;;;;;;;5.85;5.35;;;0.70;1.00;;;;;;5077424;28;20455;-83
2023/01/19 03:28:19;;;;;;;5.93;5.10;;;0.80;1.00;;;;;;5085066;28;20226;-83
2023/01/19 03:30:53;;;;;;;6.00;5.40;;;0.70;99.90;;;;;;5080249;28;20217;-83
2023/01/19 03:33:26;;;;;;;6.97;5.57;;;0.60;99.90;;;;;;5075224;28;20188;-83
2023/01/19 03:36:05;;;;;;;6.20;4.68;;;0.50;99.90;;;;;;5076511;28;20756;-82
2023/01/19 03:38:37;;;;;;;5.55;5.05;;;0.60;1.00;;;;;;5084139;28;20207;-83
2023/01/19 03:41:10;;;;;;;7.25;5.03;;;0.60;99.90;;;;;;5087297;28;20235;-82
2023/01/19 03:43:40;;;;;;;7.55;5.93;;;0.60;99.90;;;;;;5077098;28;20274;-84
2023/01/19 03:46:09;;;;;;;13.15;8.60;;;0.40;99.90;;;;;;5079851;28;20226;-81
2023/01/19 03:48:38;;;;;;;13.02;8.80;;;0.50;99.90;;;;;;5084859;28;20204;-82
2023/01/19 03:51:09;;;;;;;14.93;8.43;;;0.50;99.90;;;;;;5082627;28;20220;-82
2023/01/19 03:53:37;;;;;;;7.70;5.75;;;0.50;99.90;;;;;;5084664;28;20210;-83
2023/01/19 03:56:12;;;;;;;6.40;5.78;;;0.40;99.90;;;;;;5081358;28;20208;-82
2023/01/19 03:58:41;;;;;;;6.97;5.70;;;0.40;1.00;;;;;;5082919;28;20196;-81
2023/01/19 04:01:09;;;;;;;7.50;6.50;;;0.40;99.90;;;;;;5080059;28;20225;-81
2023/01/19 04:03:37;;;;;;;8.63;6.35;;;0.40;1.00;;;;;;5077835;28;20188;-83
2023/01/19 04:06:08;;;;;;;7.18;6.00;;;0.50;99.90;;;;;;5080542;28;20202;-81
2023/01/19 04:08:36;;;;;;;6.40;5.65;;;0.30;99.90;;;;;;5080193;28;20211;-82
2023/01/19 04:11:07;;;;;;;11.27;8.07;;;0.30;1.00;;;;;;5081691;28;20230;-83
2023/01/19 04:13:35;;;;;;;8.80;7.65;;;0.30;99.90;;;;;;5076155;28;20207;-83
2023/01/19 04:16:05;;;;;;;9.68;7.82;;;0.40;1.00;;;;;;5095195;28;20568;-82
2023/01/19 04:18:34;;;;;;;11.40;7.65;;;0.30;99.90;;;;;;5098165;28;20187;-82
2023/01/19 04:21:04;;;;;;;8.55;7.50;;;0.20;99.90;;;;;;5084037;28;20610;-81
2023/01/19 04:23:33;;;;;;;11.57;7.65;;;0.20;99.90;;;;;;5087097;28;20200;-81
2023/01/19 04:26:04;;;;;;;8.00;7.20;;;0.20;1.00;;;;;;5089371;28;20196;-81
2023/01/19 04:28:35;;;;;;;9.45;7.22;;;0.20;1.00;;;;;;5085730;28;20208;-81
2023/01/19 04:31:05;;;;;;;8.88;7.88;;;0.20;1.00;;;;;;5084214;28;20786;-81
2023/01/19 04:33:33;;;;;;;8.38;7.05;;;0.20;1.00;;;;;;5084099;28;20205;-82
2023/01/19 04:36:02;;;;;;;10.77;7.13;;;0.20;1.00;;;;;;5082321;28;20937;-81
2023/01/19 04:38:31;;;;;;;7.78;6.88;;;0.30;1.00;;;;;;5074188;28;20196;-81
2023/01/19 04:40:59;;;;;;;7.50;6.53;;;0.40;1.00;;;;;;5073749;28;20228;-82
2023/01/19 04:43:27;;;;;;;10.23;7.30;;;0.30;1.00;;;;;;5077516;28;20288;-81
2023/01/19 04:45:57;;;;;;;9.15;7.50;;;0.40;1.00;;;;;;5075703;28;20224;-81
2023/01/19 04:48:25;;;;;;;8.07;7.15;;;0.50;1.00;;;;;;5079308;28;20235;-81
2023/01/19 04:50:53;;;;;;;9.40;6.95;;;0.50;1.00;;;;;;5073663;28;20582;-82
2023/01/19 04:53:22;;;;;;;9.88;7.90;;;0.40;1.00;;;;;;5078712;28;20253;-82
2023/01/19 04:55:53;;;;;;;8.65;6.57;;;0.40;1.00;;;;;;5079309;28;20610;-83
2023/01/19 04:58:23;;;;;;;9.23;6.80;;;0.40;1.00;;;;;;5077375;28;20215;-82
2023/01/19 05:00:53;;;;;;;10.73;7.70;;;0.50;1.00;;;;;;5079361;28;20216;-81
2023/01/19 05:03:22;;;;;;;8.10;7.20;;;0.40;1.00;;;;;;5077033;28;20227;-83
2023/01/19 05:05:53;;;;;;;7.28;6.40;;;0.40;1.00;;;;;;5082850;28;20265;-82
2023/01/19 05:08:21;;;;;;;9.05;7.05;;;0.50;1.00;;;;;;5082999;28;20220;-81
2023/01/19 05:10:50;;;;;;;8.10;6.95;;;0.40;1.00;;;;;;5083053;28;20215;-82
2023/01/19 05:13:18;;;;;;;10.05;6.70;;;0.40;1.00;;;;;;5080557;28;20680;-81
2023/01/19 05:15:46;;;;;;;11.98;6.55;;;0.50;1.00;;;;;;5074999;28;20797;-83
2023/01/19 05:18:15;;;;;;;9.90;7.18;;;0.50;1.00;;;;;;5082955;28;20188;-82
2023/01/19 05:20:44;;;;;;;9.40;6.63;;;0.40;1.00;;;;;;5085701;28;20219;-79
2023/01/19 05:23:13;;;;;;;7.97;6.85;;;0.40;1.00;;;;;;5086784;28;20234;-82
2023/01/19 05:25:44;;;;;;;8.77;6.32;;;0.40;1.00;;;;;;5086793;28;20201;-82
2023/01/19 05:28:14;;;;;;;6.32;5.70;;;0.40;1.00;;;;;;5086614;28;20216;-83
2023/01/19 05:30:42;;;;;;;13.82;7.10;;;0.40;1.00;;;;;;5091046;28;20224;-81
2023/01/19 05:33:11;;;;;;;7.63;5.95;;;0.40;1.00;;;;;;5077512;28;20198;-80
2023/01/19 05:35:39;;;;;;;8.18;6.88;;;0.50;1.00;;;;;;5080039;28;20236;-81
2023/01/19 05:38:08;;;;;;;9.48;6.93;;;0.40;1.00;;;;;;5084767;28;20196;-82
2023/01/19 05:40:37;;;;;;;8.90;5.80;;;0.40;1.00;;;;;;5077439;28;22034;-80
2023/01/19 05:43:05;;;;;;;9.38;7.82;;;0.50;1.00;;;;;;5080543;28;20527;-81
2023/01/19 05:45:34;;;;;;;10.40;8.68;;;0.40;1.00;;;;;;5081242;28;20806;-79
2023/01/19 05:48:02;;;;;;;9.73;7.60;;;0.40;1.00;;;;;;5081502;28;20694;-79
2023/01/19 05:50:31;;;;;;;11.80;9.27;;;0.30;1.00;;;;;;5080582;28;20244;-80
2023/01/19 05:52:59;;;;;;;8.60;6.38;;;0.50;1.00;;;;;;5085971;28;20196;-80
2023/01/19 05:55:29;;;;;;;9.07;6.45;;;0.40;1.00;;;;;;5088556;28;20251;-81
2023/01/19 05:57:58;;;;;;;10.02;7.75;;;0.20;1.00;;;;;;5087025;28;20274;-80
2023/01/19 06:00:26;;;;;;;8.50;6.50;;;0.30;1.00;;;;;;5088858;28;20221;-82
2023/01/19 06:02:54;;;;;;;8.15;7.05;;;0.40;1.00;;;;;;5089567;28;20852;-82
2023/01/19 06:05:22;;;;;;;8.52;6.82;;;0.50;99.90;;;;;;5093771;28;20223;-80
2023/01/19 06:07:51;;;;;;;10.70;6.95;;;0.40;1.00;;;;;;5089333;28;20753;-81
2023/01/19 06:10:19;;;;;;;7.85;6.57;;;0.40;1.00;;;;;;5094272;28;20228;-81
2023/01/19 06:12:50;;;;;;;10.45;6.97;;;0.30;1.00;;;;;;5082826;28;20253;-81
2023/01/19 06:15:18;;;;;;;6.95;5.75;;;0.30;1.00;;;;;;5091153;28;20295;-82
2023/01/19 06:17:47;;;;;;;7.22;6.20;;;0.50;1.00;;;;;;5090537;28;20204;-81
2023/01/19 06:20:15;;;;;;;8.00;6.35;;;0.30;1.00;;;;;;5087576;28;20261;-80
2023/01/19 06:22:43;;;;;;;9.45;6.18;;;0.30;1.00;;;;;;5078348;28;20810;-77
2023/01/19 06:25:11;;;;;;;8.13;6.07;;;0.30;1.00;;;;;;5079084;28;20723;-80
2023/01/19 06:27:43;;;;;;;9.82;6.50;;;0.30;1.00;;;;;;5082060;28;20407;-81
2023/01/19 06:30:14;;;;;;;10.77;5.97;;;0.30;1.00;;;;;;5077726;28;20192;-80
2023/01/19 06:32:42;;;;;;;7.78;6.15;;;0.40;1.00;;;;;;5080269;28;20197;-82
2023/01/19 06:35:11;;;;;;;7.45;6.60;;;0.40;1.00;;;;;;5081905;28;20332;-81
2023/01/19 06:37:39;;;;;;;7.22;6.28;;;0.40;1.00;;;;;;5086251;28;20192;-83
2023/01/19 06:40:09;;;;;;;7.13;6.43;;;0.50;1.00;;;;;;5081103;28;20222;-81
2023/01/19 06:42:37;;;;;;;7.60;5.97;;;0.50;1.00;;;;;;5093837;27;20204;-78
2023/01/19 06:45:06;;;;;;;6.93;6.22;;;0.50;1.00;;;;;;5076325;28;20700;-81
2023/01/19 06:47:35;;;;;;;8.73;6.20;;;0.50;1.00;;;;;;5083353;28;20254;-81
2023/01/19 06:50:04;;;;;;;11.68;6.57;;;0.60;1.00;;;;;;5082257;28;20228;-80
2023/01/19 06:52:33;;;;;;;7.10;5.28;;;0.50;1.00;;;;;;5082234;28;20188;-81
2023/01/19 06:55:01;;;;;;;7.63;5.55;;;0.50;1.00;;;;;;5081907;28;20792;-81
2023/01/19 06:57:29;;;;;;;10.32;6.03;;;0.50;1.00;;;;;;5082094;28;20284;-80
2023/01/19 06:59:59;;;;;;;6.75;5.85;;;0.60;1.00;;;;;;5080014;28;20204;-82
2023/01/19 07:02:27;;;;;;;9.63;5.65;;;0.60;99.90;;;;;;5080621;28;20786;-81
2023/01/19 07:04:57;;;;;;;8.88;6.05;;;0.60;99.90;;;;;;5083253;28;20207;-83
2023/01/19 07:07:26;;;;;;;6.95;5.20;;;0.50;99.90;;;;;;5080231;28;20257;-82
2023/01/19 07:09:54;;;;;;;5.45;4.75;;;0.60;99.90;;;;;;5081864;28;20214;-82
2023/01/19 07:12:23;;;;;;;5.63;4.53;;;0.50;99.90;;;;;;5079656;28;20204;-82
2023/01/19 07:14:51;;;;;;;5.90;5.03;;;0.50;1.00;;;;;;5080777;28;20663;-82
2023/01/19 07:17:20;;;;;;;7.47;5.47;;;0.50;99.90;;;;;;5082849;28;20197;-82
2023/01/19 07:19:48;;;;;;;7.93;5.30;;;0.50;1.00;;;;;;5086618;28;20180;-82
2023/01/19 07:22:17;;;;;;;8.55;6.05;;;0.50;99.90;;;;;;5075149;28;20231;-81
2023/01/19 07:24:45;;;;;;;7.80;6.38;;;0.50;1.00;;;;;;5079728;28;20200;-81
2023/01/19 07:27:15;;;;;;;6.82;5.07;;;0.40;99.90;;;;;;5082115;28;20276;-82
2023/01/19 07:29:43;;;;;;;7.60;4.95;;;0.40;99.90;;;;;;5079792;28;20223;-81
2023/01/19 07:32:11;;;;;;;7.90;5.95;;;0.50;99.90;;;;;;5081546;28;20216;-82
2023/01/19 07:34:39;;;;;;;7.03;5.90;;;0.50;99.90;;;;;;5082160;28;20191;-82
2023/01/19 07:37:07;;;;;;;5.78;5.28;;;0.60;99.90;;;;;;5083107;28;20295;-81
2023/01/19 07:39:37;;;;;;;7.35;5.55;;;0.60;99.90;;;;;;5080473;28;21329;-81
2023/01/19 07:42:06;;;;;;;7.85;6.13;;;0.60;99.90;;;;;;5078352;28;20962;-81
2023/01/19 07:44:34;;;;;;;5.93;4.90;;;0.50;99.90;;;;;;5078356;28;20199;-82
2023/01/19 07:47:05;;;;;;;7.38;5.30;;;0.50;99.90;;;;;;5079103;28;20204;-81
2023/01/19 07:49:34;;;;;;;7.18;6.47;;;0.60;99.90;;;;;;5074735;28;20219;-81
2023/01/19 07:52:02;;;;;;;6.90;5.57;;;0.60;99.90;;;;;;5081509;28;20219;-81
2023/01/19 07:54:30;;;;;;;4.65;4.10;;;0.60;99.90;;;;;;5075150;28;20204;-82
2023/01/19 07:57:00;;;;;;;6.40;5.65;;;0.50;99.90;;;;;;5074368;28;20261;-81
2023/01/19 07:59:31;;;;;;;5.55;4.45;;;0.50;99.90;;;;;;5075909;28;20192;-82
2023/01/19 08:01:59;;;;;;;5.60;5.10;;;0.50;99.90;;;;;;5076479;28;20443;-82
2023/01/19 08:04:28;;;;;;;6.15;4.80;;;0.50;99.90;;;;;;5071587;28;20200;-83
2023/01/19 08:06:57;;;;;;;5.20;4.70;;;0.40;99.90;;;;;;5089797;28;20424;-83
2023/01/19 08:09:25;;;;;;;5.45;4.90;;;0.50;99.90;;;;;;5077669;28;20233;-82
2023/01/19 08:11:53;;;;;;;6.47;4.70;;;0.60;99.90;;;;;;5081592;28;20219;-82
2023/01/19 08:14:23;;;;;;;6.78;4.55;;;0.60;99.90;;;;;;5075896;28;20938;-83
2023/01/19 08:16:51;;;;;;;6.00;5.20;;;0.50;99.90;;;;;;5073381;28;20200;-82
2023/01/19 08:19:19;;;;;;;9.25;5.80;;;0.60;99.90;;;;;;5079095;28;20196;-81
2023/01/19 08:21:47;;;;;;;5.60;4.30;;;0.60;99.90;;;;;;5076807;28;20581;-79
2023/01/19 08:24:20;;;;;;;5.57;4.20;;;0.60;99.90;;;;;;5075747;28;20202;-79
2023/01/19 08:26:49;;;;;;;6.10;5.50;;;0.60;99.90;;;;;;5074623;28;20197;-81
2023/01/19 08:29:17;;;;;;;5.35;4.78;;;0.60;99.90;;;;;;5078118;28;20224;-82
2023/01/19 08:31:46;;;;;;;6.22;4.40;;;0.60;99.90;;;;;;5078765;28;20263;-82
2023/01/19 08:34:15;;;;;;;5.82;4.53;;;0.80;99.90;;;;;;5077577;28;20214;-82
2023/01/19 08:36:43;;;;;;;4.68;4.22;;;0.90;99.90;;;;;;5075734;28;20216;-82
2023/01/19 08:39:12;;;;;;;6.03;4.40;;;1.00;99.90;;;;;;5078255;28;20201;-83
2023/01/19 08:41:40;;;;;;;5.10;4.60;;;1.00;99.90;;;;;;5078763;28;20636;-83
2023/01/19 08:44:08;;;;;;;9.65;4.30;;;1.10;99.90;;;;;;5090453;28;20209;-83
2023/01/19 08:46:36;;;;;;;5.00;4.35;;;1.10;99.90;;;;;;5080221;28;20208;-82
2023/01/19 08:49:06;;;;;;;6.35;4.10;;;1.30;99.90;;;;;;5075557;28;20211;-82
2023/01/19 08:51:34;;;;;;;5.60;3.90;;;1.40;99.90;;;;;;5076919;28;20212;-83
2023/01/19 08:54:02;;;;;;;5.28;4.70;;;1.50;99.90;;;;;;5077216;28;20195;-82
2023/01/19 08:56:31;;;;;;;4.75;4.35;;;1.60;99.90;;;;;;5078293;28;20673;-82
2023/01/19 08:58:59;;;;;;;6.85;4.50;;;1.50;99.90;;;;;;5079730;28;20209;-82
2023/01/19 09:01:37;;;;;;;9.02;5.75;;;1.40;99.90;;;;;;5080301;28;20368;-81
2023/01/19 09:04:07;;;;;;;3.92;3.45;;;1.40;99.90;;;;;;5079051;28;20237;-82
2023/01/19 09:06:35;;;;;;;5.55;4.40;;;1.40;99.90;;;;;;5080477;28;20194;-82
2023/01/19 09:09:03;;;;;;;3.80;3.50;;;1.40;99.90;;;;;;5077297;28;22077;-82
2023/01/19 09:11:31;;;;;;;3.90;3.60;;;1.70;99.90;;;;;;5083297;28;20824;-81
2023/01/19 09:14:00;;;;;;;5.95;3.60;;;1.80;99.90;;;;;;5077317;28;20205;-82
2023/01/19 09:16:28;;;;;;;4.28;3.80;;;1.60;99.90;;;;;;5080056;28;20252;-82
2023/01/19 09:18:57;;;;;;;5.03;3.58;;;1.50;99.90;;;;;;5082432;28;20322;-83
2023/01/19 09:21:27;;;;;;;3.53;3.22;;;1.50;99.90;;;;;;5077040;28;20222;-78
2023/01/19 09:23:56;;;;;;;4.70;3.42;;;1.40;99.90;;;;;;5079761;28;20691;-78
2023/01/19 09:26:25;;;;;;;5.82;3.90;;;1.60;1.00;;;;;;5083518;28;20203;-77
2023/01/19 09:28:54;;;;;;;4.70;4.30;;;1.80;99.90;;;;;;5077313;28;20448;-82
2023/01/19 09:31:23;;;;;;;4.63;3.40;;;1.90;99.90;;;;;;5083826;28;20500;-83
2023/01/19 09:33:51;;;;;;;5.00;4.50;;;2.00;99.90;;;;;;5084215;28;20247;-82
2023/01/19 09:36:19;;;;;;;6.57;4.25;;;1.90;99.90;;;;;;5085353;28;20720;-83
2023/01/19 09:38:49;;;;;;;5.75;4.45;;;2.00;99.90;;;;;;5081144;28;20746;-82
2023/01/19 09:41:21;;;;;;;4.53;3.60;;;2.00;99.90;;;;;;5079929;28;20885;-82
2023/01/19 09:43:54;;;;;;;4.13;3.42;;;2.20;99.90;;;;;;5081614;28;20709;-81
2023/01/19 09:46:27;;;;;;;5.00;3.53;;;2.50;99.90;;;;;;5080898;28;20250;-82
2023/01/19 09:48:57;;;;;;;3.92;3.50;;;2.60;99.90;;;;;;5081204;28;20234;-81
2023/01/19 09:51:28;;;;;;;7.13;4.32;;;2.60;99.90;;;;;;5078373;28;20228;-83
2023/01/19 09:54:13;;;;;;;4.15;3.50;;;2.50;99.90;;;;;;5083922;28;20194;-83
2023/01/19 09:56:42;;;;;;;7.05;4.10;;;2.60;99.90;;;;;;5081929;28;20201;-83
2023/01/19 09:59:22;;;;;;;4.22;3.90;;;2.50;99.90;;;;;;5079837;28;20259;-83
2023/01/19 10:02:07;;;;;;;5.53;4.20;;;2.50;99.90;;;;;;5080884;28;20223;-81
2023/01/19 10:04:40;;;;;;;4.30;3.90;;;2.40;99.90;;;;;;5079045;28;20313;-83
2023/01/19 10:07:26;;;;;;;3.97;3.58;;;2.30;99.90;;;;;;5080795;28;20206;-83
2023/01/19 10:10:08;;;;;;;4.22;3.67;;;2.20;99.90;;;;;;5084137;28;20217;-83
2023/01/19 10:12:45;;;;;;;4.63;4.05;;;2.20;99.90;;;;;;5084800;28;20206;-83
2023/01/19 10:15:24;;;;;;;3.33;3.03;;;2.30;99.90;;;;;;5081626;28;20213;-84
2023/01/19 10:18:04;;;;;;;4.82;3.88;;;2.20;99.90;;;;;;5082690;28;20211;-82
2023/01/19 10:20:38;;;;;;;4.10;3.70;;;2.30;99.90;;;;;;5079013;28;20515;-83
2023/01/19 10:23:25;;;;;;;4.90;4.20;;;2.00;99.90;;;;;;5079907;28;20205;-80
2023/01/19 10:25:56;;;;;;;4.93;4.13;;;2.00;99.90;;;;;;5098582;27;20201;-82
2023/01/19 10:28:26;;;;;;;4.63;4.15;;;2.00;99.90;;;;;;5087199;28;20275;-84
2023/01/19 10:30:55;;;;;;;4.60;3.78;;;2.00;99.90;;;;;;5092877;28;20252;-84
2023/01/19 10:33:24;;;;;;;5.22;4.70;;;2.10;99.90;;;;;;5086651;28;20212;-83
2023/01/19 10:35:52;;;;;;;4.90;4.40;;;2.10;99.90;;;;;;5088429;28;20193;-82
2023/01/19 10:38:21;;;;;;;4.38;3.60;;;2.00;99.90;;;;;;5076965;28;20274;-84
2023/01/19 10:40:57;;;;;;;3.97;3.63;;;1.80;99.90;;;;;;5086496;28;20302;-83
2023/01/19 10:43:42;;;;;;;4.35;3.95;;;1.90;99.90;;;;;;5083838;28;20211;-83
2023/01/19 10:46:28;;;;;;;4.20;3.90;;;2.00;99.90;;;;;;5075681;28;21531;-84
2023/01/19 10:48:57;;;;;;;6.05;4.55;;;2.10;99.90;;;;;;5076774;28;20273;-83
2023/01/19 10:51:25;;;;;;;6.63;4.05;;;2.10;99.90;;;;;;5077387;28;20268;-83
2023/01/19 10:53:59;;;;;;;4.43;4.03;;;2.10;99.90;;;;;;5076144;28;20205;-82
2023/01/19 10:56:32;;;;;;;6.40;3.92;;;2.10;99.90;;;;;;5092942;28;20733;-84
2023/01/19 10:59:02;;;;;;;4.22;3.80;;;2.20;99.90;;;;;;5080811;28;20201;-84
2023/01/19 11:01:34;;;;;;;4.03;3.60;;;2.10;99.90;;;;;;5080155;28;20270;-83
2023/01/19 11:04:22;;;;;;;3.88;3.58;;;2.10;99.90;;;;;;5085463;28;20228;-83
2023/01/19 11:06:50;;;;;;;3.80;3.40;;;2.70;99.90;;;;;;5076430;28;20881;-83
2023/01/19 11:09:20;;;;;;;3.70;3.40;;;3.30;99.90;;;;;;5082497;28;20201;-84
2023/01/19 11:11:52;;;;;;;3.28;3.08;;;3.80;99.90;;;;;;5081778;28;20298;-83
2023/01/19 11:14:24;;;;;;;3.40;3.10;;;4.10;99.90;;;;;;5081890;28;20196;-82
2023/01/19 11:16:54;;;;;;;7.22;3.88;;;4.40;99.90;;;;;;5079805;28;20199;-82
2023/01/19 11:19:27;;;;;;;5.47;3.78;;;4.40;99.90;;;;;;5080021;28;20199;-83
2023/01/19 11:22:20;;;;;;;4.72;3.80;;;4.40;99.90;;;;;;5084942;28;20862;-81
2023/01/19 11:24:49;;;;;;;3.85;3.50;;;4.30;99.90;;;;;;5087572;28;20229;-83
2023/01/19 11:27:21;;;;;;;4.32;3.92;;;4.40;99.90;;;;;;5090410;28;20208;-84
2023/01/19 11:29:57;;;;;;;4.17;3.73;;;5.10;99.90;;;;;;5077574;28;20200;-82
2023/01/19 11:32:27;;;;;;;6.35;4.15;;;5.70;99.90;;;;;;5073608;28;21452;-84
2023/01/19 11:34:55;;;;;;;6.37;4.13;;;5.60;99.90;;;;;;5072172;28;20196;-82
2023/01/19 11:37:29;;;;;;;5.50;3.67;;;5.60;99.90;;;;;;5073134;28;20454;-82
2023/01/19 11:39:59;;;;;;;5.10;4.53;;;5.80;99.90;;;;;;5075314;28;20465;-83
2023/01/19 11:42:32;;;;;;;6.10;4.17;;;5.50;99.90;;;;;;5070126;28;20457;-83
2023/01/19 11:45:04;;;;;;;4.53;4.13;;;5.50;99.90;;;;;;5068655;28;20469;-81
2023/01/19 11:47:39;;;;;;;4.63;4.22;;;5.20;99.90;;;;;;5071020;28;20470;-82
2023/01/19 11:50:15;;;;;;;4.38;3.97;;;5.00;99.90;;;;;;5069718;28;20202;-82
2023/01/19 11:52:47;;;;;;;3.92;3.45;;;4.90;99.90;;;;;;5072931;28;20218;-81
2023/01/19 11:55:22;;;;;;;4.25;3.78;;;4.80;99.90;;;;;;5086394;28;20196;-83
2023/01/19 11:57:53;;;;;;;5.78;3.47;;;4.60;99.90;;;;;;5073270;28;20235;-83
2023/01/19 12:00:28;;;;;;;6.22;4.60;;;4.40;99.90;;;;;;5069027;28;20200;-83
2023/01/19 12:03:01;;;;;;;5.90;4.95;;;4.30;99.90;;;;;;5071449;28;20199;-81
2023/01/19 12:05:34;;;;;;;4.47;4.05;;;4.20;99.90;;;;;;5068693;28;20264;-83
2023/01/19 12:08:06;;;;;;;4.60;3.78;;;4.10;99.90;;;;;;5081013;28;20196;-83
2023/01/19 12:10:40;;;;;;;4.25;3.88;;;3.90;99.90;;;;;;5097712;28;20305;-84
2023/01/19 12:13:18;;;;;;;4.65;3.50;;;3.70;99.90;;;;;;5082062;28;20198;-83
2023/01/19 12:15:49;;;;;;;4.72;3.95;;;3.70;99.90;;;;;;5082528;28;20200;-83
2023/01/19 12:18:21;;;;;;;3.92;3.42;;;3.70;99.90;;;;;;5082645;28;20204;-82
2023/01/19 12:20:52;;;;;;;6.63;4.53;;;3.70;99.90;;;;;;5084817;28;20218;-83
2023/01/19 12:23:33;;;;;;;3.40;3.10;;;3.60;99.90;;;;;;5075025;28;20191;-83
2023/01/19 12:26:17;;;;;;;6.85;5.70;;;3.50;99.90;;;;;;5083756;28;20558;-82
2023/01/19 12:28:49;;;;;;;5.60;5.18;;;3.50;99.90;;;;;;5074605;28;20205;-83
2023/01/19 12:31:20;;;;;;;5.32;3.53;;;3.50;99.90;;;;;;5084414;28;20220;-83
2023/01/19 12:33:49;;;;;;;3.83;3.00;;;3.50;99.90;;;;;;5085701;28;20285;-82
2023/01/19 12:36:36;;;;;;;3.92;3.40;;;3.40;99.90;;;;;;5084136;28;20222;-84
2023/01/19 12:39:19;;;;;;;3.78;3.05;;;3.40;99.90;;;;;;5081071;28;20993;-84
2023/01/19 12:41:49;;;;;;;4.10;3.70;;;3.40;99.90;;;;;;5082340;28;20217;-83
2023/01/19 12:44:29;;;;;;;4.07;3.33;;;3.40;99.90;;;;;;5080202;28;20204;-83
2023/01/19 12:47:03;;;;;;;7.03;2.97;;;3.40;99.90;;;;;;5084661;28;20217;-83
2023/01/19 12:49:41;;;;;;;2.47;2.33;;;3.40;99.90;;;;;;5082882;28;20201;-83
2023/01/19 12:52:32;;;;;;;2.92;2.72;;;3.40;99.90;;;;;;5079289;28;20218;-82
2023/01/19 12:55:06;;;;;;;2.50;2.30;;;3.40;99.90;;;;;;5071876;28;20316;-83
2023/01/19 12:57:36;;;;;;;2.78;2.58;;;3.40;99.90;;;;;;5085045;28;20202;-83
2023/01/19 13:00:08;;;;;;;3.58;2.05;;;3.30;99.90;;;;;;5084783;28;20203;-82
2023/01/19 13:02:46;;;;;;;2.08;1.98;;;3.30;99.90;;;;;;5073706;28;20499;-84
2023/01/19 13:05:22;;;;;;;2.88;2.47;;;3.20;99.90;;;;;;5076877;28;20336;-81
2023/01/19 13:08:33;;;;;;;2.08;1.98;;;3.30;99.90;;;;;;5075985;28;20255;-83
2023/01/19 13:11:20;;;;;;;3.67;3.00;;;3.30;99.90;;;;;;5061080;28;20224;-83
2023/01/19 13:14:34;;;;;;;3.33;3.03;;;3.20;99.90;;;;;;5083145;28;20199;-82
2023/01/19 13:17:33;;;;;;;2.58;1.90;;;3.10;99.90;;;;;;5084449;28;20194;-82
2023/01/19 13:20:26;;;;;;;4.35;3.65;;;3.10;99.90;;;;;;5078375;28;20198;-83
2023/01/19 13:23:17;;;;;;;4.65;2.90;;;3.20;99.90;;;;;;5075189;28;20264;-83
2023/01/19 13:25:50;;;;;;;2.25;2.05;;;3.20;99.90;;;;;;5081871;28;20198;-84
2023/01/19 13:28:23;;;;;;;3.63;3.22;;;3.10;99.90;;;;;;5078809;28;20701;-83
2023/01/19 13:30:56;;;;;;;16.05;11.60;;;3.10;99.90;;;;;;5074041;28;20225;-83